Anderson, OH

02:57 PM EST am 30. Januar 2015 (GMT -0500)
APRSWXNET Cincinnati OH US | Change Station
CLOSE
Current Station
Personal Weather Stations
Location: Anderson, OH
Elevation: 862 ft
Nearby Weather Stations

Elev 862 ft 39.09 °N, 84.33 °W | Updated 25 minutes ago

gröschteteils wulchig
gröschteteils wulchig
28 °F
Feels Like 21 °F
N
7
Wind veränderlich Wind from WNW
Gusts 12.0 mph

Hüt
High -- | Low -- °F
--% Chance of Precip.
Geschter
High -- | Low -- °F
Precip. -- inch
7:45 AM 5:55 PM
Waxing Gibbous, 84% visible
Druck 30.49 inch
Sichtwiiti 10.0 Meile
bewölkt gröschteteils wulchig 4100 ft
Wind uschüelig 21 °F
Taupunkt 15 °F
Füechtigkeit 58%
Rainfall 0.00 inch
Snow Depth Not available.
UV 2 out of 12
Pollen .10 out of 12
Air Quality Not available.
Flu Activity Not available.
METAR KLUK 301853Z 32007KT 280V360 10SM BKN041 M01/M09 A3048 RMK AO2 SLP324 T10061094

More Conditions Fewer Conditions

Druck 30.49 inch
Sichtwiiti 10.0 Meile
bewölkt gröschteteils wulchig 4100 ft
Wind uschüelig 21 °F
Taupunkt 15 °F
Füechtigkeit 58%
Rainfall 0.00 inch
Snow Depth Not available.
UV 2 out of 12
Pollen .10 out of 12
Air Quality Not available.
Flu Activity Not available.
METAR KLUK 301853Z 32007KT 280V360 10SM BKN041 M01/M09 A3048 RMK AO2 SLP324 T10061094

More Conditions Fewer Conditions

10-Day Weather Forecast

Almanac

Astronomie

Jan. 30, 2015 Rise Set
Momentani Ziit
Civil Twilight
Nautical Twilight
Astronomical Twilight
Mond
Length Of Visible Light
Längi vum Tag
Tomorrow will be .
, % of the Moon is Illuminated

Today's Extremes

State Highs State Lows

Community

WunderPhotos

Upload Photos

1,791,879 photos uploaded!

WunderBlogs® & News

Nearby

Air Quality

  Air Quality AQ Index Pollutant
Not available.

Schneetüfi

Station Depth Elevation

Earthquake Activity

Stadt Distance Mag. Time & Date
Minimum magnitude displayed is 2.5.

Coastal Water Temperatures

Ort Temperatur

Nearby Weather Stations